createdAt,value
2023-12-09T00:01:54.235Z,14.85
2023-12-09T00:04:56.300Z,14.93
2023-12-09T00:07:58.517Z,14.85
2023-12-09T00:11:00.694Z,14.90
2023-12-09T00:14:05.394Z,14.88
2023-12-09T00:17:07.830Z,14.86
2023-12-09T00:20:10.381Z,14.83
2023-12-09T00:23:12.479Z,14.87
2023-12-09T00:26:14.708Z,14.81
2023-12-09T00:29:17.190Z,14.81
2023-12-09T00:32:19.479Z,14.78
2023-12-09T00:35:21.823Z,14.72
2023-12-09T00:38:24.290Z,14.71
2023-12-09T00:41:26.341Z,14.74
2023-12-09T00:44:28.577Z,14.73
2023-12-09T00:47:30.696Z,14.51
2023-12-09T00:50:32.914Z,14.66
2023-12-09T00:53:34.944Z,14.65
2023-12-09T00:56:36.969Z,14.74
2023-12-09T00:59:39.014Z,14.73
2023-12-09T01:02:41.562Z,14.73
2023-12-09T01:05:44.043Z,14.79
2023-12-09T01:08:46.385Z,14.81
2023-12-09T01:11:48.515Z,14.74
2023-12-09T01:14:50.744Z,14.77
2023-12-09T01:17:53.028Z,14.80
2023-12-09T01:20:55.081Z,14.67
2023-12-09T01:23:57.299Z,14.67
2023-12-09T01:26:59.607Z,14.65
2023-12-09T01:30:01.848Z,14.52
2023-12-09T01:33:04.355Z,14.55
2023-12-09T01:36:06.785Z,14.60
2023-12-09T01:39:10.462Z,14.67
2023-12-09T01:42:12.815Z,14.58
2023-12-09T01:45:15.182Z,14.51
2023-12-09T01:48:17.627Z,14.47
2023-12-09T01:51:20.032Z,14.66
2023-12-09T01:54:22.316Z,14.65
2023-12-09T01:57:25.222Z,14.64
2023-12-09T02:00:27.677Z,14.65
2023-12-09T02:03:32.516Z,14.65
2023-12-09T02:06:34.884Z,14.57
2023-12-09T02:09:40.750Z,14.53
2023-12-09T02:12:56.472Z,14.51
2023-12-09T02:16:23.517Z,14.41
2023-12-09T02:19:27.187Z,14.41
2023-12-09T02:22:29.972Z,14.44
2023-12-09T02:25:33.059Z,14.41
2023-12-09T02:28:41.383Z,14.50
2023-12-09T02:31:45.134Z,14.53
2023-12-09T02:34:49.197Z,14.55
2023-12-09T02:37:53.423Z,14.55
2023-12-09T02:40:56.513Z,14.56
2023-12-09T02:43:59.216Z,14.54
2023-12-09T02:47:01.266Z,14.42
2023-12-09T02:50:03.820Z,14.43
2023-12-09T02:53:06.015Z,14.44
2023-12-09T02:56:08.567Z,14.46
2023-12-09T02:59:10.683Z,14.36
2023-12-09T03:02:12.769Z,14.39
2023-12-09T03:05:15.104Z,14.31
2023-12-09T03:08:17.227Z,14.38
2023-12-09T03:11:19.908Z,14.40
2023-12-09T03:14:23.735Z,14.31
2023-12-09T03:17:26.013Z,14.55
2023-12-09T03:20:28.226Z,14.47
2023-12-09T03:23:30.298Z,14.32
2023-12-09T03:26:32.862Z,14.60
2023-12-09T03:29:36.959Z,14.52
2023-12-09T03:32:39.929Z,14.46
2023-12-09T03:35:43.115Z,14.49
2023-12-09T03:38:45.383Z,14.38
2023-12-09T03:41:47.474Z,14.35
2023-12-09T03:44:49.737Z,14.40
2023-12-09T03:47:52.240Z,14.37
2023-12-09T03:50:54.445Z,14.47
2023-12-09T03:53:56.504Z,14.36
2023-12-09T03:56:58.963Z,14.40
2023-12-09T04:00:01.284Z,14.41
2023-12-09T04:03:04.252Z,14.54
2023-12-09T04:06:06.696Z,14.52
2023-12-09T04:09:10.861Z,14.48
2023-12-09T04:12:13.023Z,14.45
2023-12-09T04:15:15.249Z,14.43
2023-12-09T04:18:18.672Z,14.34
2023-12-09T04:21:21.695Z,14.35
2023-12-09T04:24:24.573Z,14.42
2023-12-09T04:27:26.701Z,14.36
2023-12-09T04:30:29.697Z,14.32
2023-12-09T04:33:32.008Z,14.29
2023-12-09T04:36:34.444Z,14.20
2023-12-09T04:39:36.817Z,14.20
2023-12-09T04:42:39.817Z,14.28
2023-12-09T04:45:41.998Z,14.33
2023-12-09T04:48:44.876Z,14.42
2023-12-09T04:51:47.222Z,14.44
2023-12-09T04:54:49.516Z,14.33
2023-12-09T04:57:51.720Z,14.40
2023-12-09T05:00:53.899Z,14.27
2023-12-09T05:03:56.132Z,14.31
2023-12-09T05:06:58.453Z,14.33
2023-12-09T05:10:00.737Z,14.31
2023-12-09T05:13:02.790Z,14.17
2023-12-09T05:16:05.302Z,14.21
2023-12-09T05:19:08.151Z,14.22
2023-12-09T05:22:10.300Z,14.18
2023-12-09T05:25:12.521Z,14.41
2023-12-09T05:28:14.617Z,14.39
2023-12-09T05:31:16.791Z,14.38
2023-12-09T05:34:19.151Z,14.37
2023-12-09T05:37:21.617Z,14.27
2023-12-09T05:40:23.653Z,14.29
2023-12-09T05:43:25.760Z,14.28
2023-12-09T05:46:28.189Z,14.21
2023-12-09T05:49:30.528Z,14.23
2023-12-09T05:52:32.680Z,14.19
2023-12-09T05:55:34.831Z,14.18
2023-12-09T05:58:36.905Z,14.21
2023-12-09T06:01:39.075Z,14.07
2023-12-09T06:04:41.211Z,14.34
2023-12-09T06:07:43.415Z,15.28
2023-12-09T06:10:45.550Z,16.10
2023-12-09T06:13:47.649Z,17.18
2023-12-09T06:16:49.876Z,18.25
2023-12-09T06:19:52.359Z,18.53
2023-12-09T06:22:54.561Z,18.95
2023-12-09T06:25:56.550Z,17.94
2023-12-09T06:28:58.662Z,17.97
2023-12-09T06:32:02.983Z,17.84
2023-12-09T06:35:05.563Z,18.21
2023-12-09T06:38:08.153Z,18.36
2023-12-09T06:41:10.239Z,18.41
2023-12-09T06:44:13.539Z,18.88
2023-12-09T06:47:15.637Z,18.90
2023-12-09T06:50:17.965Z,18.82
2023-12-09T06:53:20.044Z,18.74
2023-12-09T06:56:22.945Z,18.55
2023-12-09T06:59:25.182Z,18.29
2023-12-09T07:02:34.685Z,17.98
2023-12-09T07:05:43.322Z,17.75
2023-12-09T07:08:46.192Z,17.86
2023-12-09T07:11:48.296Z,18.08
2023-12-09T07:15:06.705Z,18.83
2023-12-09T07:18:08.933Z,18.53
2023-12-09T07:21:11.573Z,17.96
2023-12-09T07:24:14.177Z,17.65
2023-12-09T07:27:16.210Z,17.43
2023-12-09T07:30:18.419Z,17.33
2023-12-09T07:33:20.673Z,17.18
2023-12-09T07:36:23.012Z,17.16
2023-12-09T07:39:25.285Z,16.98
2023-12-09T07:42:27.835Z,16.84
2023-12-09T07:45:30.206Z,16.79
2023-12-09T07:48:32.877Z,16.68
2023-12-09T07:51:37.289Z,16.62
2023-12-09T07:54:39.453Z,16.46
2023-12-09T07:57:41.646Z,16.23
2023-12-09T08:00:43.801Z,16.14
2023-12-09T08:03:46.350Z,16.07
2023-12-09T08:06:48.578Z,15.96
2023-12-09T08:09:50.767Z,15.78
2023-12-09T08:12:52.907Z,15.97
2023-12-09T08:15:55.042Z,15.91
2023-12-09T08:18:57.300Z,15.77
2023-12-09T08:22:00.669Z,15.57
2023-12-09T08:25:02.937Z,15.73
2023-12-09T08:28:07.096Z,15.69
2023-12-09T08:31:09.487Z,15.70
2023-12-09T08:34:11.642Z,15.84
2023-12-09T08:37:14.022Z,16.17
2023-12-09T08:40:16.384Z,15.86
2023-12-09T08:43:18.483Z,15.70
2023-12-09T08:46:20.532Z,15.76
2023-12-09T08:49:22.762Z,15.68
2023-12-09T08:52:25.216Z,16.11
2023-12-09T08:55:27.496Z,16.47
2023-12-09T08:58:29.873Z,16.73
2023-12-09T09:01:31.921Z,16.61
2023-12-09T09:04:34.790Z,16.57
2023-12-09T09:07:41.430Z,16.81
2023-12-09T09:10:43.665Z,17.05
2023-12-09T09:13:45.849Z,17.18
2023-12-09T09:16:48.451Z,17.27
2023-12-09T09:19:50.702Z,17.30
2023-12-09T09:22:52.931Z,17.05
2023-12-09T09:25:55.046Z,16.71
2023-12-09T09:28:57.763Z,16.45
2023-12-09T09:31:59.904Z,16.34
2023-12-09T09:35:02.120Z,16.24
2023-12-09T09:38:04.235Z,16.15
2023-12-09T09:41:10.715Z,16.08
2023-12-09T09:44:18.695Z,16.39
2023-12-09T09:47:22.406Z,16.49
2023-12-09T09:50:26.553Z,16.45
2023-12-09T09:53:41.070Z,16.29
2023-12-09T09:56:44.269Z,16.62
2023-12-09T09:59:46.774Z,16.55
2023-12-09T10:02:54.634Z,16.43
2023-12-09T10:05:59.646Z,16.33
2023-12-09T10:09:02.108Z,15.85
2023-12-09T10:12:04.645Z,15.47
2023-12-09T10:15:08.355Z,15.33
2023-12-09T10:18:14.942Z,15.35
2023-12-09T10:21:17.455Z,15.29
2023-12-09T10:24:19.699Z,15.29
2023-12-09T10:27:23.937Z,15.41
2023-12-09T10:30:26.552Z,15.27
2023-12-09T10:33:34.438Z,15.23
2023-12-09T10:36:37.026Z,15.02
2023-12-09T10:39:46.426Z,15.06
2023-12-09T10:42:49.895Z,14.86
2023-12-09T10:45:52.049Z,14.79
2023-12-09T10:48:55.338Z,14.75
2023-12-09T10:51:57.621Z,14.67
2023-12-09T10:55:00.095Z,14.68
2023-12-09T10:58:05.617Z,14.87
2023-12-09T11:01:08.636Z,14.91
2023-12-09T11:04:11.226Z,14.97
2023-12-09T11:07:13.946Z,14.87
2023-12-09T11:10:16.975Z,15.03
2023-12-09T11:13:20.258Z,14.97
2023-12-09T11:16:22.657Z,14.90
2023-12-09T11:19:26.227Z,14.85
2023-12-09T11:22:29.935Z,14.93
2023-12-09T11:25:32.178Z,14.88
2023-12-09T11:28:34.297Z,14.81
2023-12-09T11:31:44.244Z,14.66
2023-12-09T11:34:46.565Z,14.87
2023-12-09T11:37:50.481Z,14.94
2023-12-09T11:40:53.426Z,14.83
2023-12-09T11:43:57.106Z,14.84
2023-12-09T11:46:59.546Z,14.76
2023-12-09T11:50:02.541Z,14.70
2023-12-09T11:53:04.678Z,14.70
2023-12-09T11:56:07.784Z,14.54
2023-12-09T11:59:09.942Z,14.66
2023-12-09T12:02:12.053Z,14.59
2023-12-09T12:05:14.380Z,14.53
2023-12-09T12:08:17.342Z,14.51
2023-12-09T12:11:23.311Z,14.49
2023-12-09T12:14:26.893Z,14.49
2023-12-09T12:17:37.256Z,14.45
2023-12-09T12:20:39.472Z,14.40
2023-12-09T12:23:41.548Z,14.23
2023-12-09T12:26:43.706Z,14.23
2023-12-09T12:29:45.830Z,14.29
2023-12-09T12:32:57.053Z,14.21
2023-12-09T12:36:03.040Z,14.33
2023-12-09T12:39:07.420Z,14.38
2023-12-09T12:42:09.880Z,14.31
2023-12-09T12:45:19.315Z,14.21
2023-12-09T12:48:22.189Z,14.33
2023-12-09T12:51:26.962Z,14.28
2023-12-09T12:54:29.251Z,14.13
2023-12-09T12:57:32.757Z,14.16
2023-12-09T13:00:34.932Z,14.04
2023-12-09T13:03:37.226Z,14.14
2023-12-09T13:06:39.442Z,14.18
2023-12-09T13:09:41.704Z,14.24
2023-12-09T13:12:44.055Z,14.03
2023-12-09T13:15:46.552Z,14.08
2023-12-09T13:18:49.580Z,14.19
2023-12-09T13:21:51.782Z,14.21
2023-12-09T13:24:54.130Z,14.28
2023-12-09T13:27:56.594Z,14.62
2023-12-09T13:30:59.109Z,14.99
2023-12-09T13:34:01.479Z,15.66
2023-12-09T13:37:04.648Z,15.39
2023-12-09T13:40:09.144Z,15.58
2023-12-09T13:43:11.385Z,16.25
2023-12-09T13:46:14.861Z,16.93
2023-12-09T13:49:17.101Z,17.22
2023-12-09T13:52:19.354Z,18.03
2023-12-09T13:55:22.274Z,18.35
2023-12-09T13:58:24.407Z,18.23
2023-12-09T14:01:26.690Z,17.28
2023-12-09T14:04:29.317Z,17.63
2023-12-09T14:07:32.074Z,18.59
2023-12-09T14:10:34.270Z,18.25
2023-12-09T14:13:36.926Z,18.04
2023-12-09T14:16:39.115Z,17.85
2023-12-09T14:19:41.634Z,17.79
2023-12-09T14:22:46.239Z,17.37
2023-12-09T14:25:48.428Z,17.58
2023-12-09T14:28:50.979Z,17.87
2023-12-09T14:31:53.134Z,18.90
2023-12-09T14:34:55.683Z,19.13
2023-12-09T14:37:58.219Z,18.43
2023-12-09T14:41:00.439Z,18.36
2023-12-09T14:44:07.982Z,18.59
2023-12-09T14:47:11.556Z,18.67
2023-12-09T14:50:14.225Z,17.88
2023-12-09T14:53:18.737Z,17.83
2023-12-09T14:56:20.879Z,18.42
2023-12-09T14:59:23.515Z,18.65
2023-12-09T15:02:26.039Z,18.11
2023-12-09T15:05:28.439Z,18.05
2023-12-09T15:08:30.769Z,18.42
2023-12-09T15:11:32.835Z,18.66
2023-12-09T15:14:35.091Z,18.06
2023-12-09T15:17:38.728Z,17.75
2023-12-09T15:20:41.128Z,18.21
2023-12-09T15:23:43.410Z,18.40
2023-12-09T15:26:45.578Z,17.98
2023-12-09T15:29:48.823Z,17.85
2023-12-09T15:32:51.045Z,18.32
2023-12-09T15:35:55.985Z,18.15
2023-12-09T15:38:58.189Z,17.63
2023-12-09T15:42:00.598Z,17.70
2023-12-09T15:45:04.189Z,17.99
2023-12-09T15:48:06.769Z,17.99
2023-12-09T15:51:09.191Z,17.62
2023-12-09T15:54:11.330Z,17.70
2023-12-09T15:57:15.080Z,18.04
2023-12-09T16:00:17.587Z,18.18
2023-12-09T16:03:20.513Z,17.82
2023-12-09T16:06:25.004Z,17.94
2023-12-09T16:09:27.326Z,18.20
2023-12-09T16:12:29.800Z,18.55
2023-12-09T16:15:32.194Z,18.22
2023-12-09T16:18:34.552Z,18.40
2023-12-09T16:21:37.049Z,18.96
2023-12-09T16:24:39.197Z,19.03
2023-12-09T16:27:41.522Z,18.19
2023-12-09T16:30:44.022Z,18.11
2023-12-09T16:33:48.492Z,18.28
2023-12-09T16:37:01.147Z,18.24
2023-12-09T16:40:04.143Z,17.88
2023-12-09T16:43:21.332Z,18.00
2023-12-09T16:46:24.198Z,18.19
2023-12-09T16:49:26.418Z,18.31
2023-12-09T16:52:28.907Z,18.02
2023-12-09T16:55:31.131Z,18.10
2023-12-09T16:58:33.322Z,18.46
2023-12-09T17:01:35.575Z,18.42
2023-12-09T17:04:37.969Z,18.10
2023-12-09T17:07:40.244Z,18.10
2023-12-09T17:10:42.331Z,18.21
2023-12-09T17:13:44.423Z,18.27
2023-12-09T17:16:46.783Z,17.89
2023-12-09T17:19:49.005Z,17.87
2023-12-09T17:22:51.278Z,18.23
2023-12-09T17:25:53.481Z,18.28
2023-12-09T17:28:55.540Z,17.95
2023-12-09T17:31:57.624Z,17.97
2023-12-09T17:34:59.880Z,18.28
2023-12-09T17:38:02.095Z,18.38
2023-12-09T17:41:06.418Z,18.37
2023-12-09T17:44:08.611Z,18.28
2023-12-09T17:47:10.786Z,18.34
2023-12-09T17:50:12.888Z,18.15
2023-12-09T17:53:18.032Z,18.00
2023-12-09T17:56:20.219Z,17.81
2023-12-09T17:59:22.310Z,17.87
2023-12-09T18:02:24.540Z,17.72
2023-12-09T18:05:26.894Z,17.62
2023-12-09T18:08:29.711Z,17.55
2023-12-09T18:11:31.885Z,17.50
2023-12-09T18:14:34.002Z,17.26
2023-12-09T18:17:36.209Z,17.23
2023-12-09T18:20:38.519Z,17.05
2023-12-09T18:23:40.761Z,16.92
2023-12-09T18:26:43.234Z,16.88
2023-12-09T18:29:45.518Z,16.75
2023-12-09T18:32:47.936Z,16.70
2023-12-09T18:35:50.215Z,16.40
2023-12-09T18:38:52.473Z,16.48
2023-12-09T18:41:55.297Z,16.18
2023-12-09T18:44:58.208Z,16.28
2023-12-09T18:48:00.494Z,16.18
2023-12-09T18:51:04.531Z,16.02
2023-12-09T18:54:06.725Z,15.94
2023-12-09T18:57:08.964Z,15.94
2023-12-09T19:00:12.230Z,15.89
2023-12-09T19:03:14.654Z,15.77
2023-12-09T19:06:16.929Z,15.72
2023-12-09T19:09:19.927Z,16.25
2023-12-09T19:12:23.361Z,16.55
2023-12-09T19:15:27.004Z,16.34
2023-12-09T19:18:29.356Z,16.26
2023-12-09T19:21:31.702Z,16.15
2023-12-09T19:24:34.331Z,15.96
2023-12-09T19:27:36.632Z,15.98
2023-12-09T19:30:38.889Z,16.02
2023-12-09T19:33:41.224Z,16.10
2023-12-09T19:36:45.231Z,15.92
2023-12-09T19:39:47.776Z,15.66
2023-12-09T19:42:51.272Z,15.68
2023-12-09T19:45:53.622Z,15.81
2023-12-09T19:48:56.926Z,15.84
2023-12-09T19:51:59.191Z,15.72
2023-12-09T19:55:01.564Z,15.53
2023-12-09T19:58:04.036Z,15.64
2023-12-09T20:01:06.614Z,15.71
2023-12-09T20:04:08.989Z,15.53
2023-12-09T20:07:11.428Z,15.34
2023-12-09T20:10:14.275Z,15.31
2023-12-09T20:13:17.133Z,15.23
2023-12-09T20:16:19.308Z,15.23
2023-12-09T20:19:24.780Z,15.18
2023-12-09T20:22:28.820Z,15.14
2023-12-09T20:25:31.065Z,15.06
2023-12-09T20:28:34.973Z,15.10
2023-12-09T20:31:37.074Z,15.07
2023-12-09T20:34:39.281Z,14.89
2023-12-09T20:37:41.719Z,15.03
2023-12-09T20:40:44.871Z,15.00
2023-12-09T20:43:48.861Z,14.95
2023-12-09T20:46:52.296Z,14.90
2023-12-09T20:49:54.686Z,14.88
2023-12-09T20:52:56.876Z,14.77
2023-12-09T20:55:59.056Z,14.81
2023-12-09T20:59:05.391Z,14.74
2023-12-09T21:02:07.540Z,14.82
2023-12-09T21:05:09.817Z,14.72
2023-12-09T21:08:11.982Z,14.76
2023-12-09T21:11:15.505Z,14.71
2023-12-09T21:14:17.743Z,14.77
2023-12-09T21:17:20.065Z,14.78
2023-12-09T21:20:22.133Z,14.71
2023-12-09T21:23:24.343Z,14.70
2023-12-09T21:26:26.610Z,14.69
2023-12-09T21:29:29.549Z,14.82
2023-12-09T21:32:31.779Z,14.72
2023-12-09T21:35:33.965Z,14.75
2023-12-09T21:38:38.218Z,14.68
2023-12-09T21:41:40.393Z,14.75
2023-12-09T21:44:46.216Z,14.84
2023-12-09T21:47:54.891Z,14.69
2023-12-09T21:50:59.217Z,14.58
2023-12-09T21:54:01.436Z,14.54
2023-12-09T21:57:03.775Z,14.49
2023-12-09T22:00:06.860Z,14.55
2023-12-09T22:03:09.260Z,14.58
2023-12-09T22:06:13.975Z,14.67
2023-12-09T22:09:16.354Z,14.66
2023-12-09T22:12:19.050Z,14.65
2023-12-09T22:15:21.265Z,14.57
2023-12-09T22:18:23.662Z,14.47
2023-12-09T22:21:26.171Z,14.56
2023-12-09T22:24:29.294Z,14.50
2023-12-09T22:27:31.414Z,14.53
2023-12-09T22:30:33.622Z,14.56
2023-12-09T22:33:37.425Z,14.54
2023-12-09T22:36:40.220Z,14.42
2023-12-09T22:39:43.232Z,14.49
2023-12-09T22:42:45.533Z,14.54
2023-12-09T22:45:47.747Z,14.64
2023-12-09T22:48:49.957Z,14.54
2023-12-09T22:51:52.184Z,14.62
2023-12-09T22:54:54.285Z,14.61
2023-12-09T22:57:56.581Z,14.57
2023-12-09T23:00:58.680Z,14.52
2023-12-09T23:04:04.381Z,14.51
2023-12-09T23:07:06.809Z,14.43
2023-12-09T23:10:09.144Z,14.49
2023-12-09T23:13:11.287Z,14.52
2023-12-09T23:16:13.902Z,14.52
2023-12-09T23:19:16.179Z,14.41
2023-12-09T23:22:18.401Z,14.43
2023-12-09T23:25:20.472Z,14.38
2023-12-09T23:28:23.630Z,14.51
2023-12-09T23:31:31.782Z,14.53
2023-12-09T23:34:41.332Z,14.35
2023-12-09T23:37:43.731Z,14.60
2023-12-09T23:40:45.941Z,14.49
2023-12-09T23:43:48.192Z,14.61
2023-12-09T23:46:50.329Z,14.72
2023-12-09T23:49:52.448Z,15.18
2023-12-09T23:52:54.493Z,15.95
2023-12-09T23:55:56.645Z,16.25
2023-12-09T23:58:59.361Z,16.67
